Time;durP1;ratioP1;P1;durP2;ratioP2;P2;SDS_P1;SDS_P2;PMS_P1;PMS_P2;Temp;Humidity;BMP_temperature;BMP_pressure;BME280_temperature;BME280_humidity;BME280_pressure;Samples;Min_cycle;Max_cycle;Signal;HPM_P1;HPM_P2
2022/09/21 00:00:39;;;;;;;;;;;;;;;;;;5054287;28;1352;-73
2022/09/21 00:03:05;;;;;;;;;;;;;;;;;;5052766;28;1594;-73
2022/09/21 00:05:33;;;;;;;;;;;;;;;;;;5051787;28;1448;-74
2022/09/21 00:07:59;;;;;;;;;;;;;;;;;;5052739;28;1953;-73
2022/09/21 00:10:26;;;;;;;;;;;;;;;;;;5053195;28;1465;-73
2022/09/21 00:12:52;;;;;;;;;;;;;;;;;;5051639;28;1615;-74
2022/09/21 00:15:18;;;;;;;;;;;;;;;;;;5053327;28;1370;-73
2022/09/21 00:17:46;;;;;;;;;;;;;;;;;;5052791;28;1414;-73
2022/09/21 00:20:12;;;;;;;;;;;;;;;;;;5052246;28;1342;-72
2022/09/21 00:22:40;;;;;;;;;;;;;;;;;;5052387;28;1522;-74
2022/09/21 00:25:07;;;;;;;;;;;;;;;;;;5053578;28;1244;-72
2022/09/21 00:27:33;;;;;;;;;;;;;;;;;;5053571;28;1890;-74
2022/09/21 00:30:01;;;;;;;;;;;;;;;;;;5052503;28;1160;-76
2022/09/21 00:32:30;;;;;;;;;;;;;;;;;;5053225;28;1439;-74
2022/09/21 00:34:56;;;;;;;;;;;;;;;;;;5052341;28;1403;-77
2022/09/21 00:37:22;;;;;;;;;;;;;;;;;;5052639;28;1569;-77
2022/09/21 00:39:50;;;;;;;;;;;;;;;;;;5051997;28;1248;-76
2022/09/21 00:42:17;;;;;;;;;;;;;;;;;;5052361;28;1316;-76
2022/09/21 00:44:43;;;;;;;;;;;;;;;;;;5052293;28;1598;-76
2022/09/21 00:47:09;;;;;;;;;;;;;;;;;;5053008;28;1232;-76
2022/09/21 00:49:36;;;;;;;;;;;;;;;;;;5051807;28;2058;-76
2022/09/21 00:52:03;;;;;;;;;;;;;;;;;;5052026;28;1429;-78
2022/09/21 00:54:31;;;;;;;;;;;;;;;;;;5052507;28;1414;-76
2022/09/21 00:57:00;;;;;;;;;;;;;;;;;;5052143;28;1461;-77
2022/09/21 00:59:26;;;;;;;;;;;;;;;;;;5068216;28;1926;-76
2022/09/21 01:01:52;;;;;;;;;;;;;;;;;;5071389;28;1410;-77
2022/09/21 01:04:19;;;;;;;;;;;;;;;;;;5051969;28;1397;-76
2022/09/21 01:06:46;;;;;;;;;;;;;;;;;;5052729;28;1648;-76
2022/09/21 01:09:12;;;;;;;;;;;;;;;;;;5053019;28;1207;-76
2022/09/21 01:11:41;;;;;;;;;;;;;;;;;;5052964;28;1307;-76
2022/09/21 01:14:14;;;;;;;;;;;;;;;;;;5051879;28;1422;-76
2022/09/21 01:16:41;;;;;;;;;;;;;;;;;;5048633;28;1597;-76
2022/09/21 01:19:11;;;;;;;;;;;;;;;;;;5043871;28;1914;-75
2022/09/21 01:21:37;;;;;;;;;;;;;;;;;;5050874;28;1422;-76
2022/09/21 01:24:27;;;;;;;;;;;;;;;;;;5050048;28;1578;-76
2022/09/21 01:26:58;;;;;;;;;;;;;;;;;;5051692;28;1370;-78
2022/09/21 01:29:27;;;;;;;;;;;;;;;;;;5044156;28;1397;-76
2022/09/21 01:31:55;;;;;;;;;;;;;;;;;;5051101;28;1445;-76
2022/09/21 01:34:24;;;;;;;;;;;;;;;;;;5039922;28;1409;-76
2022/09/21 01:36:50;;;;;;;;;;;;;;;;;;5048327;28;1170;-76
2022/09/21 01:39:16;;;;;;;;;;;;;;;;;;5051457;28;1918;-76
2022/09/21 01:41:43;;;;;;;;;;;;;;;;;;5050002;28;1534;-77
2022/09/21 01:44:11;;;;;;;;;;;;;;;;;;5051010;28;1442;-76
2022/09/21 01:46:38;;;;;;;;;;;;;;;;;;5051538;28;1370;-77
2022/09/21 01:49:05;;;;;;;;;;;;;;;;;;5049502;28;1522;-76
2022/09/21 01:51:31;;;;;;;;;;;;;;;;;;5049192;28;1406;-76
2022/09/21 01:53:58;;;;;;;;;;;;;;;;;;5049235;28;1170;-76
2022/09/21 01:56:25;;;;;;;;;;;;;;;;;;5049220;28;1413;-76
2022/09/21 01:58:54;;;;;;;;;;;;;;;;;;5051095;28;1974;-77
2022/09/21 02:01:21;;;;;;;;;;;;;;;;;;5030067;28;1500;-76
2022/09/21 02:03:49;;;;;;;;;;;;;;;;;;5047385;28;1182;-76
2022/09/21 02:06:15;;;;;;;;;;;;;;;;;;5052495;28;1177;-76
2022/09/21 02:08:41;;;;;;;;;;;;;;;;;;5050691;28;1448;-78
2022/09/21 02:11:10;;;;;;;;;;;;;;;;;;5049671;28;1459;-76
2022/09/21 02:13:37;;;;;;;;;;;;;;;;;;5050820;28;1660;-76
2022/09/21 02:16:09;;;;;;;;;;;;;;;;;;5048445;28;1354;-75
2022/09/21 02:18:39;;;;;;;;;;;;;;;;;;5045890;28;1985;-76
2022/09/21 02:21:09;;;;;;;;;;;;;;;;;;5049003;28;1384;-77
2022/09/21 02:23:37;;;;;;;;;;;;;;;;;;5050225;28;1362;-77
2022/09/21 02:26:05;;;;;;;;;;;;;;;;;;5050619;28;1354;-77
2022/09/21 02:28:34;;;;;;;;;;;;;;;;;;5051354;28;1240;-76
2022/09/21 02:31:01;;;;;;;;;;;;;;;;;;5049308;28;1444;-76
2022/09/21 02:33:28;;;;;;;;;;;;;;;;;;5049842;28;1355;-76
2022/09/21 02:35:56;;;;;;;;;;;;;;;;;;5050976;28;1439;-77
2022/09/21 02:38:25;;;;;;;;;;;;;;;;;;5042693;28;1973;-76
2022/09/21 02:40:52;;;;;;;;;;;;;;;;;;5048560;28;1449;-76
2022/09/21 02:43:20;;;;;;;;;;;;;;;;;;5049750;28;1266;-76
2022/09/21 02:45:47;;;;;;;;;;;;;;;;;;5065227;22;3673;-71
2022/09/21 02:48:14;;;;;;;;;;;;;;;;;;5030056;28;1395;-73
2022/09/21 02:50:41;;;;;;;;;;;;;;;;;;5028587;28;1939;-72
2022/09/21 02:53:07;;;;;;;;;;;;;;;;;;5030971;28;1154;-73
2022/09/21 02:55:36;;;;;;;;;;;;;;;;;;5029779;28;1431;-72
2022/09/21 02:58:02;;;;;;;;;;;;;;;;;;5030432;28;1447;-73
2022/09/21 03:00:28;;;;;;;;;;;;;;;;;;5030752;28;2014;-72
2022/09/21 03:02:55;;;;;;;;;;;;;;;;;;5030122;28;1356;-72
2022/09/21 03:05:21;;;;;;;;;;;;;;;;;;5029324;28;1396;-72
2022/09/21 03:07:47;;;;;;;;;;;;;;;;;;5029369;28;1488;-72
2022/09/21 03:10:13;;;;;;;;;;;;;;;;;;5030064;28;1446;-72
2022/09/21 03:12:45;;;;;;;;;;;;;;;;;;5030853;28;1233;-73
2022/09/21 03:15:11;;;;;;;;;;;;;;;;;;5030660;28;1452;-72
2022/09/21 03:17:38;;;;;;;;;;;;;;;;;;5030437;28;1356;-72
2022/09/21 03:20:04;;;;;;;;;;;;;;;;;;5029925;28;1984;-72
2022/09/21 03:22:30;;;;;;;;;;;;;;;;;;5033818;28;1504;-72
2022/09/21 03:24:58;;;;;;;;;;;;;;;;;;5034465;28;1423;-72
2022/09/21 03:27:24;;;;;;;;;;;;;;;;;;5035565;28;1316;-73
2022/09/21 03:29:52;;;;;;;;;;;;;;;;;;5029833;28;1472;-72
2022/09/21 03:32:18;;;;;;;;;;;;;;;;;;5033885;28;1364;-72
2022/09/21 03:34:44;;;;;;;;;;;;;;;;;;5031959;28;1485;-73
2022/09/21 03:37:11;;;;;;;;;;;;;;;;;;5033634;28;1484;-72
2022/09/21 03:39:37;;;;;;;;;;;;;;;;;;5034243;28;1914;-73
2022/09/21 03:42:03;;;;;;;;;;;;;;;;;;5032792;28;1419;-73
2022/09/21 03:44:29;;;;;;;;;;;;;;;;;;5032728;28;1398;-73
2022/09/21 03:46:57;;;;;;;;;;;;;;;;;;5034447;28;1403;-73
2022/09/21 03:49:24;;;;;;;;;;;;;;;;;;5034853;28;1131;-73
2022/09/21 03:51:50;;;;;;;;;;;;;;;;;;5033220;28;1542;-73
2022/09/21 03:54:16;;;;;;;;;;;;;;;;;;5033318;28;1503;-71
2022/09/21 03:56:42;;;;;;;;;;;;;;;;;;5033330;28;1396;-72
2022/09/21 03:59:08;;;;;;;;;;;;;;;;;;5034241;28;1975;-73
2022/09/21 04:01:35;;;;;;;;;;;;;;;;;;5034390;28;1099;-72
2022/09/21 04:04:02;;;;;;;;;;;;;;;;;;5034369;28;1079;-73
2022/09/21 04:06:29;;;;;;;;;;;;;;;;;;5032338;28;1598;-72
2022/09/21 04:08:55;;;;;;;;;;;;;;;;;;5031631;28;1526;-72
2022/09/21 04:11:21;;;;;;;;;;;;;;;;;;5033931;28;1673;-72
2022/09/21 04:13:49;;;;;;;;;;;;;;;;;;5032304;28;1446;-73
2022/09/21 04:16:16;;;;;;;;;;;;;;;;;;5034170;28;1868;-73
2022/09/21 04:18:43;;;;;;;;;;;;;;;;;;5032883;28;1914;-73
2022/09/21 04:21:10;;;;;;;;;;;;;;;;;;5034088;28;1214;-73
2022/09/21 04:23:36;;;;;;;;;;;;;;;;;;5032805;28;1462;-73
2022/09/21 04:26:03;;;;;;;;;;;;;;;;;;5032094;28;1384;-73
2022/09/21 04:28:31;;;;;;;;;;;;;;;;;;5034380;28;1286;-73
2022/09/21 04:30:57;;;;;;;;;;;;;;;;;;5031053;28;1208;-73
2022/09/21 04:33:24;;;;;;;;;;;;;;;;;;5032810;28;1307;-73
2022/09/21 04:35:53;;;;;;;;;;;;;;;;;;5033250;28;1392;-72
2022/09/21 04:38:21;;;;;;;;;;;;;;;;;;5031062;28;1264;-72
2022/09/21 04:40:53;;;;;;;;;;;;;;;;;;5033128;28;2049;-72
2022/09/21 04:43:20;;;;;;;;;;;;;;;;;;5030692;28;1349;-73
2022/09/21 04:45:46;;;;;;;;;;;;;;;;;;5033014;28;1478;-73
2022/09/21 04:48:13;;;;;;;;;;;;;;;;;;5032931;28;1243;-73
2022/09/21 04:50:39;;;;;;;;;;;;;;;;;;5033145;28;1320;-73
2022/09/21 04:53:08;;;;;;;;;;;;;;;;;;5032423;28;1383;-73
2022/09/21 04:55:35;;;;;;;;;;;;;;;;;;5032904;28;1487;-73
2022/09/21 04:58:01;;;;;;;;;;;;;;;;;;5033693;28;1349;-73
2022/09/21 05:00:28;;;;;;;;;;;;;;;;;;5032829;28;1971;-71
2022/09/21 05:02:54;;;;;;;;;;;;;;;;;;5032491;28;1394;-73
2022/09/21 05:05:20;;;;;;;;;;;;;;;;;;5033023;28;1274;-73
2022/09/21 05:07:46;;;;;;;;;;;;;;;;;;5033147;28;1377;-73
2022/09/21 05:10:12;;;;;;;;;;;;;;;;;;5033283;28;1084;-75
2022/09/21 05:12:42;;;;;;;;;;;;;;;;;;5031623;28;1334;-73
2022/09/21 05:15:09;;;;;;;;;;;;;;;;;;5033157;28;1104;-73
2022/09/21 05:17:35;;;;;;;;;;;;;;;;;;5033288;28;1309;-73
2022/09/21 05:20:01;;;;;;;;;;;;;;;;;;5048244;28;1981;-75
2022/09/21 05:22:28;;;;;;;;;;;;;;;;;;5033090;28;1122;-75
2022/09/21 05:24:54;;;;;;;;;;;;;;;;;;5032949;28;1087;-75
2022/09/21 05:27:20;;;;;;;;;;;;;;;;;;5033153;28;1377;-73
2022/09/21 05:29:48;;;;;;;;;;;;;;;;;;5033090;28;948;-75
2022/09/21 05:32:16;;;;;;;;;;;;;;;;;;5033236;28;878;-74
2022/09/21 05:34:45;;;;;;;;;;;;;;;;;;5032751;28;1067;-74
2022/09/21 05:37:14;;;;;;;;;;;;;;;;;;5047891;28;1419;-74
2022/09/21 05:39:40;;;;;;;;;;;;;;;;;;5032875;28;2037;-75
2022/09/21 05:42:07;;;;;;;;;;;;;;;;;;5032280;28;1142;-76
2022/09/21 05:44:33;;;;;;;;;;;;;;;;;;5032449;28;1088;-74
2022/09/21 05:47:02;;;;;;;;;;;;;;;;;;5032111;28;1295;-74
2022/09/21 05:49:31;;;;;;;;;;;;;;;;;;5047631;28;1116;-74
2022/09/21 05:51:58;;;;;;;;;;;;;;;;;;5032028;28;1067;-74
2022/09/21 05:54:26;;;;;;;;;;;;;;;;;;5032407;28;885;-74
2022/09/21 05:56:53;;;;;;;;;;;;;;;;;;5032008;28;1314;-74
2022/09/21 05:59:39;;;;;;;;;;;;;;;;;;5032397;28;1930;-74
2022/09/21 06:02:07;;;;;;;;;;;;;;;;;;5031913;28;799;-74
2022/09/21 06:04:34;;;;;;;;;;;;;;;;;;5032012;28;1084;-74
2022/09/21 06:07:00;;;;;;;;;;;;;;;;;;5031792;28;1334;-74
2022/09/21 06:09:26;;;;;;;;;;;;;;;;;;5032011;28;1060;-74
2022/09/21 06:11:53;;;;;;;;;;;;;;;;;;5031414;28;1063;-74
2022/09/21 06:14:23;;;;;;;;;;;;;;;;;;5047026;28;1155;-74
2022/09/21 06:16:49;;;;;;;;;;;;;;;;;;5031676;28;1321;-73
2022/09/21 06:19:17;;;;;;;;;;;;;;;;;;5031370;28;1922;-74
2022/09/21 06:21:43;;;;;;;;;;;;;;;;;;5031391;28;1072;-74
2022/09/21 06:24:10;;;;;;;;;;;;;;;;;;5031212;28;1247;-73
2022/09/21 06:26:36;;;;;;;;;;;;;;;;;;5030847;28;1495;-73
2022/09/21 06:29:03;;;;;;;;;;;;;;;;;;5031003;28;1298;-73
2022/09/21 06:31:29;;;;;;;;;;;;;;;;;;5030449;28;1263;-73
2022/09/21 06:33:55;;;;;;;;;;;;;;;;;;5037985;28;1222;-73
2022/09/21 06:36:22;;;;;;;;;;;;;;;;;;5030785;28;1478;-73
2022/09/21 06:38:49;;;;;;;;;;;;;;;;;;5031048;28;1365;-74
2022/09/21 06:41:15;;;;;;;;;;;;;;;;;;5031042;28;1983;-72
2022/09/21 06:43:41;;;;;;;;;;;;;;;;;;5031138;28;1126;-74
2022/09/21 06:46:07;;;;;;;;;;;;;;;;;;5030998;28;1283;-74
2022/09/21 06:48:34;;;;;;;;;;;;;;;;;;5031822;28;1459;-74
2022/09/21 06:51:00;;;;;;;;;;;;;;;;;;5032515;28;1720;-74
2022/09/21 06:53:28;;;;;;;;;;;;;;;;;;5029230;28;1135;-74
2022/09/21 06:55:54;;;;;;;;;;;;;;;;;;5028453;28;1336;-73
2022/09/21 06:58:20;;;;;;;;;;;;;;;;;;5021440;28;1691;-74
2022/09/21 07:00:47;;;;;;;;;;;;;;;;;;5029697;28;1914;-73
2022/09/21 07:03:13;;;;;;;;;;;;;;;;;;5029032;28;996;-74
2022/09/21 07:05:39;;;;;;;;;;;;;;;;;;5044286;28;1364;-75
2022/09/21 07:08:05;;;;;;;;;;;;;;;;;;5048705;28;1393;-75
2022/09/21 07:10:33;;;;;;;;;;;;;;;;;;5046493;28;1068;-74
2022/09/21 07:13:02;;;;;;;;;;;;;;;;;;5047706;28;799;-75
2022/09/21 07:15:28;;;;;;;;;;;;;;;;;;5046976;28;1004;-74
2022/09/21 07:17:55;;;;;;;;;;;;;;;;;;5029195;28;1432;-74
2022/09/21 07:20:21;;;;;;;;;;;;;;;;;;5029575;28;1964;-75
2022/09/21 07:22:47;;;;;;;;;;;;;;;;;;5029685;28;1084;-74
2022/09/21 07:25:13;;;;;;;;;;;;;;;;;;5028813;28;972;-75
2022/09/21 07:27:41;;;;;;;;;;;;;;;;;;5029712;28;1275;-74
2022/09/21 07:30:08;;;;;;;;;;;;;;;;;;5030121;28;965;-74
2022/09/21 07:32:34;;;;;;;;;;;;;;;;;;5029549;28;1142;-74
2022/09/21 07:35:00;;;;;;;;;;;;;;;;;;5029641;28;1131;-74
2022/09/21 07:37:26;;;;;;;;;;;;;;;;;;5028599;28;1478;-74
2022/09/21 07:39:53;;;;;;;;;;;;;;;;;;5028534;28;1973;-74
2022/09/21 07:42:20;;;;;;;;;;;;;;;;;;5028142;28;881;-75
2022/09/21 07:44:47;;;;;;;;;;;;;;;;;;5028077;28;1060;-75
2022/09/21 07:47:14;;;;;;;;;;;;;;;;;;5025282;28;1321;-75
2022/09/21 07:49:40;;;;;;;;;;;;;;;;;;5025755;28;1070;-74
2022/09/21 07:52:07;;;;;;;;;;;;;;;;;;5026045;28;1068;-74
2022/09/21 07:54:34;;;;;;;;;;;;;;;;;;5045915;28;1300;-74
2022/09/21 07:59:44;;;;;;;;;;;;;;;;;;5045360;28;953;-74
2022/09/21 08:02:12;;;;;;;;;;;;;;;;;;5035656;28;1918;-74
2022/09/21 08:04:38;;;;;;;;;;;;;;;;;;5028153;28;783;-74
2022/09/21 08:07:04;;;;;;;;;;;;;;;;;;5028702;28;1377;-75
2022/09/21 08:09:30;;;;;;;;;;;;;;;;;;5045014;28;1139;-74
2022/09/21 08:11:58;;;;;;;;;;;;;;;;;;5051684;28;1080;-74
2022/09/21 08:14:24;;;;;;;;;;;;;;;;;;5051372;28;1091;-75
2022/09/21 08:16:50;;;;;;;;;;;;;;;;;;5051258;28;1405;-75
2022/09/21 08:19:18;;;;;;;;;;;;;;;;;;5049659;28;1087;-75
2022/09/21 08:21:44;;;;;;;;;;;;;;;;;;5049811;28;1977;-74
2022/09/21 08:24:10;;;;;;;;;;;;;;;;;;5051188;28;917;-74
2022/09/21 08:26:37;;;;;;;;;;;;;;;;;;5046696;28;1365;-74
2022/09/21 08:29:03;;;;;;;;;;;;;;;;;;5048546;28;1075;-74
2022/09/21 08:31:29;;;;;;;;;;;;;;;;;;5048877;28;1051;-74
2022/09/21 08:33:56;;;;;;;;;;;;;;;;;;5048992;28;969;-73
2022/09/21 08:36:24;;;;;;;;;;;;;;;;;;5048727;28;1367;-74
2022/09/21 08:38:50;;;;;;;;;;;;;;;;;;5049244;28;1059;-74
2022/09/21 08:41:18;;;;;;;;;;;;;;;;;;5049974;28;1914;-73
2022/09/21 08:43:45;;;;;;;;;;;;;;;;;;5045299;28;1459;-74
2022/09/21 08:46:12;;;;;;;;;;;;;;;;;;5028717;28;1320;-74
2022/09/21 08:48:40;;;;;;;;;;;;;;;;;;5052671;22;2103;-75
2022/09/21 08:51:07;;;;;;;;;;;;;;;;;;5032412;28;1154;-76
2022/09/21 08:53:35;;;;;;;;;;;;;;;;;;5029018;28;1156;-76
2022/09/21 08:56:01;;;;;;;;;;;;;;;;;;5031319;28;1111;-76
2022/09/21 08:58:28;;;;;;;;;;;;;;;;;;5043877;28;1327;-76
2022/09/21 09:00:57;;;;;;;;;;;;;;;;;;5049984;28;1919;-76
2022/09/21 09:03:34;;;;;;;;;;;;;;;;;;5050070;28;897;-76
2022/09/21 09:06:01;;;;;;;;;;;;;;;;;;5050137;28;1080;-76
2022/09/21 09:08:32;;;;;;;;;;;;;;;;;;5052342;28;1740;-75
2022/09/21 09:11:02;;;;;;;;;;;;;;;;;;5030317;28;1079;-74
2022/09/21 09:13:33;;;;;;;;;;;;;;;;;;5049329;28;1287;-76
2022/09/21 09:16:01;;;;;;;;;;;;;;;;;;5050105;28;1302;-76
2022/09/21 09:18:29;;;;;;;;;;;;;;;;;;5049471;28;1392;-76
2022/09/21 09:20:56;;;;;;;;;;;;;;;;;;5050133;28;1910;-76
2022/09/21 09:23:24;;;;;;;;;;;;;;;;;;5048523;28;1059;-77
2022/09/21 09:25:50;;;;;;;;;;;;;;;;;;5029902;28;989;-76
2022/09/21 09:28:20;;;;;;;;;;;;;;;;;;5050891;28;1721;-76
2022/09/21 09:30:46;;;;;;;;;;;;;;;;;;5046887;28;1157;-75
2022/09/21 09:33:13;;;;;;;;;;;;;;;;;;5029347;28;1169;-77
2022/09/21 09:35:40;;;;;;;;;;;;;;;;;;5047151;28;1079;-76
2022/09/21 09:38:10;;;;;;;;;;;;;;;;;;5048079;28;1368;-77
2022/09/21 09:40:41;;;;;;;;;;;;;;;;;;5047798;28;1964;-76
2022/09/21 09:43:07;;;;;;;;;;;;;;;;;;5047835;28;938;-76
2022/09/21 09:45:39;;;;;;;;;;;;;;;;;;5047882;28;1126;-76
2022/09/21 09:48:25;;;;;;;;;;;;;;;;;;5047860;28;1368;-76
2022/09/21 09:50:51;;;;;;;;;;;;;;;;;;5047711;28;1083;-76
2022/09/21 09:53:18;;;;;;;;;;;;;;;;;;5047519;28;1191;-76
2022/09/21 09:55:45;;;;;;;;;;;;;;;;;;5047542;28;810;-76
2022/09/21 09:58:16;;;;;;;;;;;;;;;;;;5047022;28;1301;-77
2022/09/21 10:00:44;;;;;;;;;;;;;;;;;;5030348;28;1910;-76
2022/09/21 10:03:15;;;;;;;;;;;;;;;;;;5048256;28;1122;-76
2022/09/21 10:05:41;;;;;;;;;;;;;;;;;;5048672;28;1127;-76
2022/09/21 10:08:12;;;;;;;;;;;;;;;;;;5047270;28;1286;-76
2022/09/21 10:10:40;;;;;;;;;;;;;;;;;;5028458;28;1435;-75
2022/09/21 10:13:10;;;;;;;;;;;;;;;;;;5043270;28;1165;-76
2022/09/21 10:15:39;;;;;;;;;;;;;;;;;;5046931;28;1072;-76
2022/09/21 10:18:07;;;;;;;;;;;;;;;;;;5046711;28;1302;-75
2022/09/21 10:20:33;;;;;;;;;;;;;;;;;;5046004;28;1971;-76
2022/09/21 10:22:59;;;;;;;;;;;;;;;;;;5042634;28;1145;-73
2022/09/21 10:25:25;;;;;;;;;;;;;;;;;;5025118;28;1122;-76
2022/09/21 10:27:52;;;;;;;;;;;;;;;;;;5042468;28;1381;-75
2022/09/21 10:30:31;;;;;;;;;;;;;;;;;;5046236;28;1132;-75
2022/09/21 10:32:58;;;;;;;;;;;;;;;;;;5049422;28;1076;-75
2022/09/21 10:35:26;;;;;;;;;;;;;;;;;;5048817;28;1040;-75
2022/09/21 10:38:07;;;;;;;;;;;;;;;;;;5050327;28;1321;-75
2022/09/21 10:40:35;;;;;;;;;;;;;;;;;;5049235;28;1421;-75
2022/09/21 10:43:01;;;;;;;;;;;;;;;;;;5043271;28;2140;-75
2022/09/21 10:45:28;;;;;;;;;;;;;;;;;;5050331;28;1371;-75
2022/09/21 10:47:55;;;;;;;;;;;;;;;;;;5051740;28;1427;-75
2022/09/21 10:50:22;;;;;;;;;;;;;;;;;;5044887;28;1439;-76
2022/09/21 10:52:50;;;;;;;;;;;;;;;;;;5047799;28;1076;-75
2022/09/21 10:55:16;;;;;;;;;;;;;;;;;;5046243;28;1310;-75
2022/09/21 10:57:42;;;;;;;;;;;;;;;;;;5051812;28;1459;-75
2022/09/21 11:00:12;;;;;;;;;;;;;;;;;;5042731;28;1734;-75
2022/09/21 11:02:38;;;;;;;;;;;;;;;;;;5053114;28;1925;-76
2022/09/21 11:05:09;;;;;;;;;;;;;;;;;;5049273;28;1356;-75
2022/09/21 11:07:37;;;;;;;;;;;;;;;;;;5041149;28;1416;-74
2022/09/21 11:10:07;;;;;;;;;;;;;;;;;;5051626;28;1442;-75
2022/09/21 11:12:39;;;;;;;;;;;;;;;;;;5045071;28;1154;-75
2022/09/21 11:15:11;;;;;;;;;;;;;;;;;;5047409;28;1072;-76
2022/09/21 11:17:38;;;;;;;;;;;;;;;;;;5061348;28;1411;-76
2022/09/21 11:20:05;;;;;;;;;;;;;;;;;;5033033;28;1320;-76
2022/09/21 11:22:32;;;;;;;;;;;;;;;;;;5049497;28;1911;-76
2022/09/21 11:25:00;;;;;;;;;;;;;;;;;;5053123;28;1538;-76
2022/09/21 11:27:30;;;;;;;;;;;;;;;;;;5048587;28;1405;-76
2022/09/21 11:29:58;;;;;;;;;;;;;;;;;;5047810;28;1136;-76
2022/09/21 11:32:29;;;;;;;;;;;;;;;;;;5046583;28;1123;-76
2022/09/21 11:35:02;;;;;;;;;;;;;;;;;;5049496;28;1466;-77
2022/09/21 11:37:32;;;;;;;;;;;;;;;;;;5050158;28;1364;-77
2022/09/21 11:40:03;;;;;;;;;;;;;;;;;;5049290;28;830;-77
2022/09/21 11:42:38;;;;;;;;;;;;;;;;;;5058785;28;1983;-77
2022/09/21 11:45:05;;;;;;;;;;;;;;;;;;5054143;28;1190;-77
2022/09/21 11:47:45;;;;;;;;;;;;;;;;;;5052774;28;1361;-77
2022/09/21 11:50:30;;;;;;;;;;;;;;;;;;5052847;28;771;-76
2022/09/21 11:52:59;;;;;;;;;;;;;;;;;;5036153;28;1614;-76
2022/09/21 11:55:33;;;;;;;;;;;;;;;;;;5054066;28;1056;-77
2022/09/21 11:58:02;;;;;;;;;;;;;;;;;;5041873;28;1377;-77
2022/09/21 12:00:29;;;;;;;;;;;;;;;;;;5035533;28;1685;-76
2022/09/21 12:03:14;;;;;;;;;;;;;;;;;;5039497;28;1926;-77
2022/09/21 12:05:41;;;;;;;;;;;;;;;;;;5061037;28;1395;-77
2022/09/21 12:08:14;;;;;;;;;;;;;;;;;;5049662;28;1311;-76
2022/09/21 12:10:43;;;;;;;;;;;;;;;;;;5051825;28;1324;-76
2022/09/21 12:13:14;;;;;;;;;;;;;;;;;;5050211;28;1139;-75
2022/09/21 12:15:42;;;;;;;;;;;;;;;;;;5048773;28;1352;-76
2022/09/21 12:18:09;;;;;;;;;;;;;;;;;;5051091;28;1321;-76
2022/09/21 12:20:37;;;;;;;;;;;;;;;;;;5053337;28;1080;-76
2022/09/21 12:23:04;;;;;;;;;;;;;;;;;;5052789;28;1910;-76
2022/09/21 12:25:31;;;;;;;;;;;;;;;;;;5036979;28;1594;-76
2022/09/21 12:27:58;;;;;;;;;;;;;;;;;;5051804;28;1427;-76
2022/09/21 12:30:26;;;;;;;;;;;;;;;;;;5053025;28;1440;-76
2022/09/21 12:32:54;;;;;;;;;;;;;;;;;;5035513;28;1444;-76
2022/09/21 12:35:25;;;;;;;;;;;;;;;;;;5041884;28;1207;-77
2022/09/21 12:37:53;;;;;;;;;;;;;;;;;;5040675;28;1896;-77
2022/09/21 12:40:26;;;;;;;;;;;;;;;;;;5048482;28;1329;-76
2022/09/21 12:42:55;;;;;;;;;;;;;;;;;;5047738;28;1910;-75
2022/09/21 12:45:22;;;;;;;;;;;;;;;;;;5052439;28;1669;-76
2022/09/21 12:47:56;;;;;;;;;;;;;;;;;;5047643;28;1630;-77
2022/09/21 12:50:24;;;;;;;;;;;;;;;;;;5027812;28;942;-75
2022/09/21 12:52:51;;;;;;;;;;;;;;;;;;5033286;28;1056;-77
2022/09/21 12:55:22;;;;;;;;;;;;;;;;;;5048006;28;1128;-74
2022/09/21 12:57:50;;;;;;;;;;;;;;;;;;5051375;28;1481;-76
2022/09/21 13:00:19;;;;;;;;;;;;;;;;;;5031464;28;1091;-76
2022/09/21 13:02:45;;;;;;;;;;;;;;;;;;5050590;28;1914;-76
2022/09/21 13:05:14;;;;;;;;;;;;;;;;;;5067743;28;1665;-76
2022/09/21 13:07:46;;;;;;;;;;;;;;;;;;5060741;28;1506;-76
2022/09/21 13:10:14;;;;;;;;;;;;;;;;;;5049475;28;1107;-77
2022/09/21 13:12:43;;;;;;;;;;;;;;;;;;5033399;28;1436;-77
2022/09/21 13:15:12;;;;;;;;;;;;;;;;;;5056561;28;1281;-75
2022/09/21 13:17:38;;;;;;;;;;;;;;;;;;5032635;28;1415;-76
2022/09/21 13:20:06;;;;;;;;;;;;;;;;;;5050334;28;1256;-76
2022/09/21 13:22:33;;;;;;;;;;;;;;;;;;5050695;28;1972;-77
2022/09/21 13:25:02;;;;;;;;;;;;;;;;;;5053866;28;1408;-77
2022/09/21 13:27:43;;;;;;;;;;;;;;;;;;5050470;28;1325;-76
2022/09/21 13:30:21;;;;;;;;;;;;;;;;;;5050547;28;1117;-76
2022/09/21 13:32:51;;;;;;;;;;;;;;;;;;5051235;28;1119;-76
2022/09/21 13:35:35;;;;;;;;;;;;;;;;;;5055966;28;1471;-76
2022/09/21 13:38:24;;;;;;;;;;;;;;;;;;5035639;28;1457;-76
2022/09/21 13:40:56;;;;;;;;;;;;;;;;;;5051726;28;1389;-77
2022/09/21 13:43:23;;;;;;;;;;;;;;;;;;5047250;28;1983;-77
2022/09/21 13:45:54;;;;;;;;;;;;;;;;;;5054634;28;1431;-76
2022/09/21 13:48:26;;;;;;;;;;;;;;;;;;5030039;28;1605;-77
2022/09/21 13:50:52;;;;;;;;;;;;;;;;;;5036335;28;1381;-76
2022/09/21 13:53:19;;;;;;;;;;;;;;;;;;5049853;28;1413;-77
2022/09/21 13:55:49;;;;;;;;;;;;;;;;;;5050633;28;1259;-77
2022/09/21 13:58:18;;;;;;;;;;;;;;;;;;5030575;28;1383;-77
2022/09/21 14:00:50;;;;;;;;;;;;;;;;;;5032464;28;1420;-77
2022/09/21 14:03:18;;;;;;;;;;;;;;;;;;5051337;28;1920;-78
2022/09/21 14:05:44;;;;;;;;;;;;;;;;;;5033405;28;1138;-78
2022/09/21 14:08:18;;;;;;;;;;;;;;;;;;5050218;28;1341;-77
2022/09/21 14:10:48;;;;;;;;;;;;;;;;;;5049695;28;1420;-77
2022/09/21 14:13:24;;;;;;;;;;;;;;;;;;5054891;28;1922;-77
2022/09/21 14:15:50;;;;;;;;;;;;;;;;;;5057696;28;1416;-77
2022/09/21 14:18:21;;;;;;;;;;;;;;;;;;5051463;28;1310;-77
2022/09/21 14:21:06;;;;;;;;;;;;;;;;;;5052494;28;997;-77
2022/09/21 14:23:32;;;;;;;;;;;;;;;;;;5050293;28;949;-78
2022/09/21 14:26:00;;;;;;;;;;;;;;;;;;5050861;28;1416;-78
2022/09/21 14:28:33;;;;;;;;;;;;;;;;;;5055767;28;1554;-78
2022/09/21 14:31:01;;;;;;;;;;;;;;;;;;5050465;28;1382;-78
2022/09/21 14:33:29;;;;;;;;;;;;;;;;;;5031839;28;1963;-77
2022/09/21 14:35:56;;;;;;;;;;;;;;;;;;5050652;28;1161;-78
2022/09/21 14:38:23;;;;;;;;;;;;;;;;;;5050716;28;1436;-79
2022/09/21 14:40:50;;;;;;;;;;;;;;;;;;5054358;28;1174;-77
2022/09/21 14:43:19;;;;;;;;;;;;;;;;;;5049936;28;1134;-78
2022/09/21 14:45:54;;;;;;;;;;;;;;;;;;5031932;28;1213;-77
2022/09/21 14:48:21;;;;;;;;;;;;;;;;;;5049174;28;1471;-77
2022/09/21 14:50:48;;;;;;;;;;;;;;;;;;5065923;22;3704;-72
2022/09/21 14:53:28;;;;;;;;;;;;;;;;;;5068968;28;1981;-73
2022/09/21 14:56:09;;;;;;;;;;;;;;;;;;5069283;28;1484;-73
2022/09/21 14:58:38;;;;;;;;;;;;;;;;;;5063224;28;1387;-73
2022/09/21 15:01:34;;;;;;;;;;;;;;;;;;5045800;28;1514;-73
2022/09/21 15:04:05;;;;;;;;;;;;;;;;;;5050232;28;1084;-74
2022/09/21 15:12:10;;;;;;;;;;;;;;;;;;5047917;28;1894;-74
2022/09/21 15:14:37;;;;;;;;;;;;;;;;;;5049599;28;1268;-73
2022/09/21 15:17:18;;;;;;;;;;;;;;;;;;5033206;28;1252;-73
2022/09/21 15:19:45;;;;;;;;;;;;;;;;;;5050812;28;1209;-73
2022/09/21 15:22:15;;;;;;;;;;;;;;;;;;5053168;28;1389;-74
2022/09/21 15:24:49;;;;;;;;;;;;;;;;;;5050905;28;1287;-73
2022/09/21 15:27:16;;;;;;;;;;;;;;;;;;5050958;28;1256;-73
2022/09/21 15:29:43;;;;;;;;;;;;;;;;;;5056760;28;1574;-74
2022/09/21 15:32:16;;;;;;;;;;;;;;;;;;5036571;28;1910;-74
2022/09/21 15:34:42;;;;;;;;;;;;;;;;;;5056768;28;1447;-73
2022/09/21 15:37:09;;;;;;;;;;;;;;;;;;5038459;28;1350;-74
2022/09/21 15:39:35;;;;;;;;;;;;;;;;;;5063498;28;1416;-74
2022/09/21 15:42:16;;;;;;;;;;;;;;;;;;5056872;28;1456;-73
2022/09/21 15:44:45;;;;;;;;;;;;;;;;;;5055703;28;1032;-73
2022/09/21 15:47:12;;;;;;;;;;;;;;;;;;5072219;28;1165;-73
2022/09/21 15:49:39;;;;;;;;;;;;;;;;;;5054154;28;1418;-73
2022/09/21 15:52:10;;;;;;;;;;;;;;;;;;5063392;28;1626;-74
2022/09/21 15:54:36;;;;;;;;;;;;;;;;;;5058563;28;1975;-73
2022/09/21 15:57:06;;;;;;;;;;;;;;;;;;5055132;28;1364;-73
2022/09/21 15:59:32;;;;;;;;;;;;;;;;;;5039663;28;1267;-74
2022/09/21 16:02:00;;;;;;;;;;;;;;;;;;5044966;28;1704;-73
2022/09/21 16:04:28;;;;;;;;;;;;;;;;;;5050299;28;1275;-73
2022/09/21 16:06:58;;;;;;;;;;;;;;;;;;5065150;28;1131;-74
2022/09/21 16:09:28;;;;;;;;;;;;;;;;;;5074443;28;1083;-72
2022/09/21 16:11:54;;;;;;;;;;;;;;;;;;5073803;28;1383;-73
2022/09/21 16:17:21;;;;;;;;;;;;;;;;;;5074068;28;829;-74
2022/09/21 16:20:08;;;;;;;;;;;;;;;;;;5056075;28;894;-73
2022/09/21 16:22:36;;;;;;;;;;;;;;;;;;5055515;28;1478;-73
2022/09/21 16:25:03;;;;;;;;;;;;;;;;;;5073840;28;1087;-73
2022/09/21 16:27:30;;;;;;;;;;;;;;;;;;5073876;28;1118;-73
2022/09/21 16:29:57;;;;;;;;;;;;;;;;;;5072805;28;948;-72
2022/09/21 16:32:27;;;;;;;;;;;;;;;;;;5073637;28;1253;-73
2022/09/21 16:34:54;;;;;;;;;;;;;;;;;;5073828;28;2088;-72
2022/09/21 16:37:24;;;;;;;;;;;;;;;;;;5073941;28;1362;-73
2022/09/21 16:39:50;;;;;;;;;;;;;;;;;;5055962;28;1390;-74
2022/09/21 16:42:16;;;;;;;;;;;;;;;;;;5055281;28;1334;-73
2022/09/21 16:44:43;;;;;;;;;;;;;;;;;;5073897;28;1075;-74
2022/09/21 16:47:11;;;;;;;;;;;;;;;;;;5055645;28;1131;-74
2022/09/21 16:49:37;;;;;;;;;;;;;;;;;;5073636;28;1123;-74
2022/09/21 16:52:04;;;;;;;;;;;;;;;;;;5055183;28;1348;-74
2022/09/21 16:54:31;;;;;;;;;;;;;;;;;;5073664;28;1930;-74
2022/09/21 16:56:58;;;;;;;;;;;;;;;;;;5073405;28;1127;-72
2022/09/21 16:59:25;;;;;;;;;;;;;;;;;;5073634;28;1060;-74
2022/09/21 17:01:51;;;;;;;;;;;;;;;;;;5074199;28;1262;-73
2022/09/21 17:04:18;;;;;;;;;;;;;;;;;;5073264;28;1111;-73
2022/09/21 17:06:44;;;;;;;;;;;;;;;;;;5055291;28;1115;-74
2022/09/21 17:09:17;;;;;;;;;;;;;;;;;;5040910;28;1512;-74
2022/09/21 17:11:47;;;;;;;;;;;;;;;;;;5061063;28;1542;-74
2022/09/21 17:14:14;;;;;;;;;;;;;;;;;;5050158;28;1979;-74
2022/09/21 17:16:42;;;;;;;;;;;;;;;;;;5048134;28;1749;-71
2022/09/21 17:19:08;;;;;;;;;;;;;;;;;;5057815;28;1319;-73
2022/09/21 17:21:34;;;;;;;;;;;;;;;;;;5063304;28;1382;-72